Time;durP1;ratioP1;P1;durP2;ratioP2;P2;SDS_P1;SDS_P2;PMS_P1;PMS_P2;Temp;Humidity;BMP_temperature;BMP_pressure;BME280_temperature;BME280_humidity;BME280_pressure;Samples;Min_cycle;Max_cycle;Signal;HPM_P1;HPM_P2
2021/03/18 00:01:30;;;;;;;25.55;9.48;;;;;;;1.77;91.68;98501.17;1803139;79;21037;-61
2021/03/18 00:03:58;;;;;;;20.35;10.75;;;;;;;1.81;91.51;98500.64;1807777;79;23453;-61
2021/03/18 00:06:26;;;;;;;19.57;10.08;;;;;;;1.82;91.19;98506.17;1807737;78;21104;-60
2021/03/18 00:08:55;;;;;;;19.30;8.68;;;;;;;1.82;90.97;98508.73;1807852;79;21014;-60
2021/03/18 00:11:23;;;;;;;21.17;10.03;;;;;;;1.78;90.87;98510.98;1807712;78;21210;-61
2021/03/18 00:13:51;;;;;;;17.15;10.08;;;;;;;1.74;90.74;98511.48;1807781;79;21046;-62
2021/03/18 00:16:18;;;;;;;16.25;10.23;;;;;;;1.72;90.85;98513.23;1807764;78;21378;-62
2021/03/18 00:18:52;;;;;;;17.25;10.15;;;;;;;1.71;91.00;98515.39;1807735;79;21109;-62
2021/03/18 00:21:22;;;;;;;18.42;10.25;;;;;;;1.72;90.75;98524.77;1807719;78;21090;-62
2021/03/18 00:23:50;;;;;;;20.85;10.78;;;;;;;1.70;90.77;98520.95;1807720;78;21076;-61
2021/03/18 00:26:25;;;;;;;17.67;10.93;;;;;;;1.72;90.77;98523.05;1807775;78;21061;-61
2021/03/18 00:28:55;;;;;;;17.92;11.18;;;;;;;1.72;90.91;98519.64;1807509;79;21552;-61
2021/03/18 00:31:23;;;;;;;18.32;9.90;;;;;;;1.75;90.93;98520.02;1807735;79;21057;-61
2021/03/18 00:33:51;;;;;;;13.78;9.10;;;;;;;1.77;90.59;98517.83;1807790;79;21105;-60
2021/03/18 00:36:18;;;;;;;21.68;10.15;;;;;;;1.79;90.51;98521.65;1807706;79;21057;-62
2021/03/18 00:38:47;;;;;;;13.80;10.98;;;;;;;1.79;90.50;98519.09;1807783;79;21060;-61
2021/03/18 00:41:15;;;;;;;16.95;10.48;;;;;;;1.78;90.43;98519.52;1807816;79;22273;-61
2021/03/18 00:43:44;;;;;;;17.67;10.50;;;;;;;1.78;90.41;98515.67;1807708;78;21160;-61
2021/03/18 00:46:12;;;;;;;18.10;9.70;;;;;;;1.79;90.20;98516.08;1807787;79;21061;-61
2021/03/18 00:48:40;;;;;;;17.25;10.18;;;;;;;1.79;90.16;98522.49;1807891;79;21065;-62
2021/03/18 00:51:15;;;;;;;18.00;10.45;;;;;;;1.79;89.97;98513.95;1807949;79;21156;-61
2021/03/18 00:53:47;;;;;;;16.65;10.25;;;;;;;1.78;90.03;98514.83;1807955;79;21184;-60
2021/03/18 00:56:19;;;;;;;18.02;10.93;;;;;;;1.78;89.95;98513.55;1807990;78;21129;-61
2021/03/18 00:58:50;;;;;;;17.75;9.83;;;;;;;1.80;89.93;98515.64;1807886;79;21080;-61
2021/03/18 01:01:23;;;;;;;16.67;11.28;;;;;;;1.80;89.76;98510.05;1809255;79;21520;-61
2021/03/18 01:03:51;;;;;;;19.60;11.08;;;;;;;1.78;89.72;98510.55;1813801;78;21030;-61
2021/03/18 01:06:26;;;;;;;20.72;11.53;;;;;;;1.80;89.68;98507.48;1813624;79;22340;-61
2021/03/18 01:08:55;;;;;;;24.35;11.10;;;;;;;1.80;89.66;98507.95;1813683;78;21549;-61
2021/03/18 01:11:34;;;;;;;17.85;9.93;;;;;;;1.82;89.64;98507.45;1813681;79;21482;-61
2021/03/18 01:14:06;;;;;;;14.75;9.20;;;;;;;1.84;89.48;98505.70;1813620;79;21156;-61
2021/03/18 01:16:41;;;;;;;20.00;9.03;;;;;;;1.82;89.29;98501.89;1813797;79;21105;-60
2021/03/18 01:19:10;;;;;;;17.12;8.53;;;;;;;1.83;89.40;98504.02;1813651;79;21204;-60
2021/03/18 01:21:44;;;;;;;17.00;8.80;;;;;;;1.86;89.11;98506.08;1813559;77;21565;-60
2021/03/18 01:24:13;;;;;;;13.25;8.55;;;;;;;1.82;88.70;98507.02;1813566;78;21042;-61
2021/03/18 01:26:41;;;;;;;17.62;8.60;;;;;;;1.78;88.59;98501.58;1813592;79;21061;-60
2021/03/18 01:29:09;;;;;;;20.23;8.23;;;;;;;1.78;88.71;98500.73;1813625;79;21061;-60
2021/03/18 01:31:38;;;;;;;12.95;8.13;;;;;;;1.77;88.55;98503.73;1813600;79;21186;-60
2021/03/18 01:34:06;;;;;;;14.43;8.28;;;;;;;1.77;88.24;98510.14;1813598;78;21133;-60
2021/03/18 01:36:35;;;;;;;20.95;7.75;;;;;;;1.76;88.15;98512.30;1813558;78;21089;-61
2021/03/18 01:39:05;;;;;;;14.33;7.67;;;;;;;1.76;87.54;98512.30;1813650;79;21611;-60
2021/03/18 01:41:33;;;;;;;13.48;8.05;;;;;;;1.72;87.17;98508.11;1813599;79;21041;-61
2021/03/18 01:44:03;;;;;;;20.43;8.73;;;;;;;1.66;87.14;98509.07;1813611;79;21382;-61
2021/03/18 01:46:32;;;;;;;15.30;8.30;;;;;;;1.64;87.08;98513.38;1813548;79;21485;-61
2021/03/18 01:49:01;;;;;;;14.68;9.23;;;;;;;1.61;87.14;98506.19;1813574;79;21084;-61
2021/03/18 01:51:29;;;;;;;13.78;6.85;;;;;;;1.62;87.16;98511.28;1813649;79;21125;-61
2021/03/18 01:53:57;;;;;;;16.15;7.70;;;;;;;1.62;87.09;98512.56;1813675;79;21104;-61
2021/03/18 01:56:25;;;;;;;14.78;6.00;;;;;;;1.63;87.01;98514.70;1813553;79;21196;-62
2021/03/18 01:58:52;;;;;;;16.62;6.75;;;;;;;1.63;86.96;98516.81;1813492;78;21072;-61
2021/03/18 02:01:20;;;;;;;12.45;6.85;;;;;;;1.62;86.71;98511.28;1812502;78;21244;-61
2021/03/18 02:03:48;;;;;;;14.35;6.97;;;;;;;1.60;86.52;98516.06;1807820;78;21039;-62
2021/03/18 02:06:17;;;;;;;14.15;6.80;;;;;;;1.58;86.52;98509.69;1807883;79;21069;-61
2021/03/18 02:08:46;;;;;;;11.22;6.47;;;;;;;1.58;86.30;98513.97;1807858;79;21187;-60
2021/03/18 02:11:13;;;;;;;13.03;6.50;;;;;;;1.58;86.12;98508.84;1807776;79;21168;-60
2021/03/18 02:13:41;;;;;;;11.05;6.05;;;;;;;1.56;86.22;98510.16;1807839;78;21046;-60
2021/03/18 02:16:13;;;;;;;12.63;6.37;;;;;;;1.56;86.24;98509.31;1807817;78;21076;-61
2021/03/18 02:19:26;;;;;;;10.20;6.33;;;;;;;1.56;86.29;98504.19;1807980;78;21050;-61
2021/03/18 02:22:15;;;;;;;16.97;5.93;;;;;;;1.58;86.33;98508.84;1808148;78;22190;-61
2021/03/18 02:25:02;;;;;;;11.60;6.15;;;;;;;1.61;86.16;98516.44;1807761;79;21762;-61
2021/03/18 02:28:09;;;;;;;11.65;6.22;;;;;;;1.62;85.91;98519.41;1807962;79;21068;-61
2021/03/18 02:31:01;;;;;;;12.28;6.35;;;;;;;1.58;85.75;98519.94;1807829;79;21105;-60
2021/03/18 02:34:07;;;;;;;12.23;6.28;;;;;;;1.55;85.73;98517.88;1807983;78;21049;-60
2021/03/18 02:36:39;;;;;;;11.73;5.80;;;;;;;1.52;85.75;98521.77;1807844;79;21254;-60
2021/03/18 02:39:12;;;;;;;12.88;5.83;;;;;;;1.50;85.77;98523.52;1808051;78;21552;-60
2021/03/18 02:41:47;;;;;;;10.55;5.53;;;;;;;1.50;85.71;98515.83;1808048;79;21576;-60
2021/03/18 02:44:28;;;;;;;14.58;6.45;;;;;;;1.48;85.71;98517.58;1807922;79;21557;-60
2021/03/18 02:47:07;;;;;;;10.32;6.47;;;;;;;1.48;85.75;98525.27;1807867;78;21101;-60
2021/03/18 02:49:39;;;;;;;15.75;6.53;;;;;;;1.47;85.82;98528.27;1807893;78;22273;-61
2021/03/18 02:52:07;;;;;;;10.60;5.50;;;;;;;1.49;85.86;98532.92;1807901;79;21125;-61
2021/03/18 02:54:35;;;;;;;11.83;5.35;;;;;;;1.52;85.65;98528.18;1807795;79;21573;-61
2021/03/18 02:57:07;;;;;;;8.55;5.75;;;;;;;1.53;85.51;98534.56;1807812;78;21180;-60
2021/03/18 02:59:37;;;;;;;11.20;5.65;;;;;;;1.54;85.46;98537.97;1807861;79;21148;-60
2021/03/18 03:02:09;;;;;;;9.83;5.72;;;;;;;1.53;85.46;98540.12;1807732;79;22285;-61
2021/03/18 03:04:38;;;;;;;10.98;5.55;;;;;;;1.54;85.45;98543.09;1807783;79;21149;-61
2021/03/18 03:07:06;;;;;;;11.38;4.83;;;;;;;1.54;85.43;98536.69;1807812;79;21096;-61
2021/03/18 03:09:34;;;;;;;11.20;5.83;;;;;;;1.53;85.30;98544.80;1807772;79;21161;-61
2021/03/18 03:12:03;;;;;;;9.73;5.85;;;;;;;1.51;85.32;98543.14;1807831;78;21478;-61
2021/03/18 03:14:31;;;;;;;8.20;5.00;;;;;;;1.49;85.48;98539.33;1807792;79;21317;-62
2021/03/18 03:17:01;;;;;;;8.60;5.25;;;;;;;1.49;85.65;98538.48;1779370;79;21160;-61
2021/03/18 03:19:29;;;;;;;6.40;4.53;;;;;;;1.46;85.85;98541.95;1807794;79;21065;-61
2021/03/18 03:21:57;;;;;;;7.58;4.50;;;;;;;1.44;86.00;98541.56;1807807;78;21514;-61
2021/03/18 03:24:26;;;;;;;7.65;5.22;;;;;;;1.45;86.23;98543.26;1807824;79;21135;-60
2021/03/18 03:26:54;;;;;;;6.58;5.33;;;;;;;1.47;86.42;98546.20;1807793;79;21195;-60
2021/03/18 03:29:23;;;;;;;8.68;5.30;;;;;;;1.48;86.63;98554.30;1753681;79;21053;-60
2021/03/18 03:31:51;;;;;;;11.50;5.20;;;;;;;1.49;86.71;98550.02;1807781;78;21072;-61
2021/03/18 03:34:19;;;;;;;8.10;4.08;;;;;;;1.48;86.85;98553.45;1779001;79;21049;-60
2021/03/18 03:36:48;;;;;;;5.45;3.85;;;;;;;1.45;86.98;98549.23;1807815;79;21101;-60
2021/03/18 03:39:16;;;;;;;8.60;4.97;;;;;;;1.42;87.25;98546.72;1807833;79;21413;-60
2021/03/18 03:41:44;;;;;;;8.13;4.78;;;;;;;1.41;87.54;98558.27;1807627;79;21113;-61
2021/03/18 03:44:12;;;;;;;6.58;4.90;;;;;;;1.40;87.77;98551.03;1807777;79;21086;-61
2021/03/18 03:46:40;;;;;;;8.05;4.28;;;;;;;1.38;88.00;98558.77;1807773;78;21061;-60
2021/03/18 03:49:08;;;;;;;7.33;4.50;;;;;;;1.37;88.15;98551.95;1807812;79;21058;-60
2021/03/18 03:52:23;;;;;;;9.30;5.37;;;;;;;1.35;88.34;98554.98;1807790;79;21576;-60
2021/03/18 03:55:08;;;;;;;12.18;6.25;;;;;;;1.35;88.47;98557.55;1807733;79;21517;-60
2021/03/18 03:58:25;;;;;;;8.10;4.85;;;;;;;1.34;88.68;98557.13;1762730;79;21541;-60
2021/03/18 04:00:56;;;;;;;8.40;4.95;;;;;;;1.34;88.62;98550.73;1807731;79;21128;-60
2021/03/18 04:03:25;;;;;;;11.90;5.70;;;;;;;1.33;88.73;98555.45;1811819;79;21132;-60
2021/03/18 04:05:56;;;;;;;11.95;5.62;;;;;;;1.33;88.73;98555.45;1813481;79;21412;-60
2021/03/18 04:08:27;;;;;;;7.97;5.05;;;;;;;1.33;88.76;98556.73;1813528;79;21148;-60
2021/03/18 04:10:58;;;;;;;6.97;4.80;;;;;;;1.35;88.73;98560.55;1813454;79;21112;-60
2021/03/18 04:13:26;;;;;;;8.15;5.35;;;;;;;1.35;88.57;98566.52;1813487;79;21104;-61
2021/03/18 04:15:59;;;;;;;9.18;5.17;;;;;;;1.34;88.50;98560.98;1786638;79;21144;-61
2021/03/18 04:18:29;;;;;;;10.32;4.58;;;;;;;1.34;88.51;98562.26;1786879;79;21197;-60
2021/03/18 04:20:57;;;;;;;9.05;4.53;;;;;;;1.33;88.50;98565.70;1813527;78;21195;-60
2021/03/18 04:23:27;;;;;;;8.63;4.53;;;;;;;1.33;88.35;98572.09;1813545;77;21537;-61
2021/03/18 04:25:57;;;;;;;9.68;4.90;;;;;;;1.34;88.29;98572.51;1813635;78;21116;-59
2021/03/18 04:28:29;;;;;;;9.55;5.22;;;;;;;1.34;88.29;98567.38;1813741;78;21552;-61
2021/03/18 04:30:58;;;;;;;8.53;4.85;;;;;;;1.37;88.30;98578.86;1813893;78;22249;-60
2021/03/18 04:33:28;;;;;;;10.88;5.55;;;;;;;1.40;88.17;98577.93;1787093;79;21129;-61
2021/03/18 04:35:57;;;;;;;7.28;4.37;;;;;;;1.41;88.17;98573.21;1813701;79;21097;-61
2021/03/18 04:38:29;;;;;;;8.65;5.47;;;;;;;1.41;88.30;98571.93;1813708;79;21568;-61
2021/03/18 04:40:57;;;;;;;9.63;5.40;;;;;;;1.41;88.37;98568.52;1813642;79;21117;-61
2021/03/18 04:43:24;;;;;;;6.83;4.92;;;;;;;1.43;88.51;98576.59;1813719;78;22732;-61
2021/03/18 04:45:53;;;;;;;8.13;5.03;;;;;;;1.44;88.53;98580.84;1813569;78;21069;-61
2021/03/18 04:48:21;;;;;;;7.80;5.15;;;;;;;1.46;88.55;98576.97;1787110;78;21486;-61
2021/03/18 04:50:49;;;;;;;9.50;4.83;;;;;;;1.46;88.62;98575.26;1813620;79;21036;-61
2021/03/18 04:53:20;;;;;;;13.35;5.53;;;;;;;1.48;88.64;98571.39;1813627;79;21100;-61
2021/03/18 04:55:48;;;;;;;8.58;4.95;;;;;;;1.49;88.59;98570.08;1813624;79;21189;-61
2021/03/18 04:58:19;;;;;;;8.38;5.58;;;;;;;1.52;88.47;98579.43;1813668;79;21109;-61
2021/03/18 05:00:47;;;;;;;9.18;5.55;;;;;;;1.53;88.33;98587.09;1813596;79;21576;-61
2021/03/18 05:03:15;;;;;;;8.23;5.40;;;;;;;1.54;88.42;98585.38;1813424;78;21112;-62
2021/03/18 05:05:43;;;;;;;12.07;6.25;;;;;;;1.54;88.50;98591.34;1813635;79;21489;-62
2021/03/18 05:08:13;;;;;;;9.85;5.33;;;;;;;1.58;88.44;98592.13;1813629;79;21077;-61
2021/03/18 05:10:41;;;;;;;8.80;4.97;;;;;;;1.61;88.43;98594.61;1813534;78;21516;-61
2021/03/18 05:13:10;;;;;;;9.95;5.45;;;;;;;1.63;88.51;98603.12;1813659;78;21473;-60
2021/03/18 05:15:40;;;;;;;9.88;5.55;;;;;;;1.64;88.41;98605.66;1813679;79;21569;-60
2021/03/18 05:18:14;;;;;;;9.93;5.17;;;;;;;1.66;88.42;98609.47;1813628;79;21057;-60
2021/03/18 05:20:43;;;;;;;9.00;5.75;;;;;;;1.69;88.45;98600.01;1813609;79;21346;-60
2021/03/18 05:23:13;;;;;;;10.58;5.45;;;;;;;1.72;88.37;98617.89;1813508;77;21069;-60
2021/03/18 05:25:41;;;;;;;9.10;5.42;;;;;;;1.74;88.32;98615.30;1813672;78;21053;-60
2021/03/18 05:28:09;;;;;;;10.50;5.83;;;;;;;1.76;88.29;98612.72;1813585;78;21152;-60
2021/03/18 05:30:37;;;;;;;8.68;5.62;;;;;;;1.77;88.24;98619.09;1813602;78;21137;-61
2021/03/18 05:33:05;;;;;;;10.98;6.42;;;;;;;1.79;88.28;98623.76;1813549;79;21364;-62
2021/03/18 05:35:37;;;;;;;7.95;6.08;;;;;;;1.81;88.27;98626.27;1813317;79;21124;-61
2021/03/18 05:38:04;;;;;;;9.83;5.58;;;;;;;1.82;88.06;98623.67;1813562;79;21108;-61
2021/03/18 05:40:33;;;;;;;11.88;6.30;;;;;;;1.84;88.08;98630.89;1813563;78;21081;-61
2021/03/18 05:43:01;;;;;;;11.12;6.10;;;;;;;1.87;87.98;98630.00;1813567;79;21061;-61
2021/03/18 05:45:28;;;;;;;10.60;6.55;;;;;;;1.89;87.84;98634.22;1813652;78;22089;-61
2021/03/18 05:47:57;;;;;;;13.10;6.22;;;;;;;1.91;87.87;98629.91;1813520;78;21546;-61
2021/03/18 05:50:26;;;;;;;11.97;6.37;;;;;;;1.94;87.74;98643.95;1813294;78;21120;-60
2021/03/18 05:52:55;;;;;;;9.48;5.83;;;;;;;1.97;87.55;98641.34;1813500;79;21156;-61
2021/03/18 05:55:23;;;;;;;10.03;6.22;;;;;;;2.03;87.27;98645.48;1813654;79;21581;-61
2021/03/18 05:57:51;;;;;;;12.98;5.75;;;;;;;2.07;86.99;98644.55;1813604;79;22253;-61
2021/03/18 06:00:21;;;;;;;11.97;7.12;;;;;;;2.10;87.05;98647.05;1813510;79;21081;-61
2021/03/18 06:02:50;;;;;;;13.00;5.95;;;;;;;2.15;86.92;98661.91;1810673;77;21128;-61
2021/03/18 06:05:18;;;;;;;10.43;6.22;;;;;;;2.22;86.69;98647.22;1799893;79;21107;-63
2021/03/18 06:07:49;;;;;;;9.45;6.08;;;;;;;2.28;86.19;98655.64;1799887;78;21164;-61
2021/03/18 06:10:20;;;;;;;12.82;6.87;;;;;;;2.32;85.59;98655.98;1799382;79;21961;-63
2021/03/18 06:12:52;;;;;;;10.68;6.20;;;;;;;2.36;85.63;98655.05;1799550;78;21143;-62
2021/03/18 06:15:21;;;;;;;12.07;6.85;;;;;;;2.41;85.57;98663.91;1799996;79;21041;-61
2021/03/18 06:17:50;;;;;;;12.53;6.42;;;;;;;2.47;84.97;98657.81;1799418;78;21120;-62
2021/03/18 06:20:28;;;;;;;14.25;6.55;;;;;;;2.49;85.18;98660.75;1799803;78;21157;-61
2021/03/18 06:22:56;;;;;;;9.48;6.75;;;;;;;2.54;84.82;98664.07;1799771;78;21436;-62
2021/03/18 06:25:32;;;;;;;13.25;6.87;;;;;;;2.57;84.50;98668.30;1799024;79;21183;-62
2021/03/18 06:28:25;;;;;;;11.22;7.50;;;;;;;2.61;84.41;98667.33;1798745;79;21168;-61
2021/03/18 06:31:10;;;;;;;;;;;;;;;2.65;84.24;98671.52;1802376;78;21069;-62
2021/03/18 06:33:45;;;;;;;13.08;6.87;;;;;;;2.70;84.50;98673.11;1799862;78;20232;-62
2021/03/18 06:36:21;;;;;;;9.43;7.08;;;;;;;2.75;84.07;98676.87;1798697;78;21208;-62
2021/03/18 06:39:16;;;;;;;8.50;6.28;;;;;;;2.78;83.84;98680.66;1780718;79;21136;-62
2021/03/18 06:41:48;;;;;;;9.30;6.35;;;;;;;2.80;82.60;98685.28;1796043;78;21196;-62
2021/03/18 06:44:25;;;;;;;10.25;6.35;;;;;;;2.80;82.73;98687.05;1796805;78;21199;-60
2021/03/18 06:47:07;;;;;;;14.80;7.90;;;;;;;2.79;82.27;98682.78;1798605;78;21123;-61
2021/03/18 06:49:36;;;;;;;12.60;6.15;;;;;;;2.79;82.72;98689.20;1799937;78;22155;-60
2021/03/18 06:52:12;;;;;;;11.12;7.05;;;;;;;2.81;83.03;98680.56;1799833;79;21186;-61
2021/03/18 06:54:43;;;;;;;10.43;7.35;;;;;;;2.84;82.40;98684.78;1799813;78;21069;-60
2021/03/18 06:57:11;;;;;;;13.10;8.03;;;;;;;2.80;81.87;98684.48;1799844;79;21134;-60
2021/03/18 06:59:42;;;;;;;11.97;6.85;;;;;;;2.77;82.29;98687.95;1799782;78;21063;-60
2021/03/18 07:02:15;;;;;;;10.13;7.35;;;;;;;2.75;82.22;98692.27;1780170;79;21140;-60
2021/03/18 07:04:51;;;;;;;10.18;7.28;;;;;;;2.72;81.23;98693.19;1744311;80;21152;-60
2021/03/18 07:07:25;;;;;;;10.50;7.20;;;;;;;2.68;82.18;98692.84;1762695;79;21051;-60
2021/03/18 07:09:54;;;;;;;9.85;7.05;;;;;;;2.67;82.22;98700.58;1772162;79;21153;-60
2021/03/18 07:12:27;;;;;;;11.38;7.22;;;;;;;2.64;82.18;98694.22;1772432;81;21554;-61
2021/03/18 07:15:00;;;;;;;10.68;7.80;;;;;;;2.64;82.54;98699.35;1772396;79;21372;-61
2021/03/18 07:17:35;;;;;;;13.75;7.42;;;;;;;2.63;82.46;98717.77;1772418;80;21149;-62
2021/03/18 07:20:22;;;;;;;9.45;7.75;;;;;;;2.66;82.52;98705.30;1772416;81;21082;-61
2021/03/18 07:22:54;;;;;;;9.88;7.67;;;;;;;2.69;82.38;98700.95;1772292;79;21177;-61
2021/03/18 07:25:29;;;;;;;10.13;7.03;;;;;;;2.76;82.33;98710.66;1772356;79;21491;-61
2021/03/18 07:28:01;;;;;;;12.23;7.35;;;;;;;2.82;82.38;98701.95;1772007;80;21360;-61
2021/03/18 07:30:36;;;;;;;13.47;8.13;;;;;;;2.88;81.90;98706.52;1772553;79;21118;-60
2021/03/18 07:33:06;;;;;;;9.60;7.95;;;;;;;2.92;81.88;98705.58;1772316;79;21665;-61
2021/03/18 07:35:35;;;;;;;10.08;7.15;;;;;;;2.95;81.91;98709.36;1779293;79;21126;-61
2021/03/18 07:38:04;;;;;;;8.90;7.05;;;;;;;2.98;80.90;98704.16;1796963;79;21047;-61
2021/03/18 07:40:32;;;;;;;11.90;7.87;;;;;;;3.01;80.74;98704.50;1796948;79;21356;-60
2021/03/18 07:43:00;;;;;;;13.53;7.83;;;;;;;3.04;80.78;98707.00;1796829;79;21496;-61
2021/03/18 07:45:29;;;;;;;14.18;7.85;;;;;;;3.02;79.49;98708.32;1796910;78;21119;-60
2021/03/18 07:47:57;;;;;;;9.08;6.55;;;;;;;3.01;79.57;98715.63;1779360;78;21075;-60
2021/03/18 07:50:29;;;;;;;12.35;6.78;;;;;;;3.03;79.18;98715.14;1796948;78;21103;-60
2021/03/18 07:52:57;;;;;;;10.18;7.28;;;;;;;3.05;79.11;98715.11;1796922;78;21358;-62
2021/03/18 07:55:25;;;;;;;11.40;8.08;;;;;;;3.07;78.76;98707.78;1796688;79;21554;-63
2021/03/18 07:57:53;;;;;;;13.43;8.30;;;;;;;3.13;78.95;98709.81;1796852;79;21182;-62
2021/03/18 08:00:24;;;;;;;9.10;7.30;;;;;;;3.16;78.65;98702.03;1779253;79;21047;-61
2021/03/18 08:02:53;;;;;;;11.45;7.55;;;;;;;3.20;79.00;98702.37;1796899;79;21039;-61
2021/03/18 08:05:40;;;;;;;9.78;6.92;;;;;;;3.26;78.53;98698.34;1807377;78;21082;-61
2021/03/18 08:08:07;;;;;;;10.75;7.75;;;;;;;3.29;77.78;98707.27;1807544;79;21141;-61
2021/03/18 08:10:41;;;;;;;12.95;7.58;;;;;;;3.31;77.36;98705.07;1803124;78;21548;-61
2021/03/18 08:13:08;;;;;;;14.10;7.40;;;;;;;3.32;76.46;98697.77;1807560;79;21107;-61
2021/03/18 08:15:47;;;;;;;9.80;6.85;;;;;;;3.38;77.14;98698.06;1807639;79;21133;-61
2021/03/18 08:18:25;;;;;;;13.98;6.95;;;;;;;3.45;76.49;98700.86;1807591;79;21116;-61
2021/03/18 08:21:01;;;;;;;10.75;7.37;;;;;;;3.48;75.81;98709.78;1807514;79;21073;-61
2021/03/18 08:23:34;;;;;;;11.22;6.92;;;;;;;3.53;76.34;98710.97;1806506;78;21194;-61
2021/03/18 08:26:05;;;;;;;9.95;6.45;;;;;;;3.57;76.02;98712.14;1774342;79;21160;-62
2021/03/18 08:28:42;;;;;;;9.98;5.97;;;;;;;3.62;74.83;98709.43;1777062;79;21152;-61
2021/03/18 08:31:21;;;;;;;8.50;6.58;;;;;;;3.67;74.86;98714.87;1807688;79;21143;-60
2021/03/18 08:33:54;;;;;;;8.43;6.25;;;;;;;3.74;75.20;98711.27;1807677;78;21053;-61
2021/03/18 08:36:29;;;;;;;8.68;6.37;;;;;;;3.82;74.95;98714.90;1807791;78;21462;-61
2021/03/18 08:39:09;;;;;;;7.12;6.17;;;;;;;3.87;74.60;98710.92;1807748;79;21556;-61
2021/03/18 08:41:45;;;;;;;9.68;5.25;;;;;;;3.92;74.19;98708.64;1807652;79;21089;-62
2021/03/18 08:44:23;;;;;;;9.70;4.60;;;;;;;4.03;74.20;98704.04;1807677;79;21152;-60
2021/03/18 08:47:00;;;;;;;8.75;4.97;;;;;;;4.13;72.37;98715.78;1807515;78;21537;-62
2021/03/18 08:49:33;;;;;;;11.65;6.22;;;;;;;4.19;71.37;98701.91;1807689;79;21117;-60
2021/03/18 08:52:13;;;;;;;12.28;5.60;;;;;;;4.25;71.10;98710.72;1807793;79;21068;-60
2021/03/18 08:54:51;;;;;;;11.48;5.58;;;;;;;4.31;71.44;98706.70;1807672;78;21077;-60
2021/03/18 08:57:27;;;;;;;8.85;5.08;;;;;;;4.37;70.13;98708.27;1807758;79;21325;-60
2021/03/18 08:59:59;;;;;;;10.15;5.22;;;;;;;4.42;70.28;98705.94;1807599;79;21164;-62
2021/03/18 09:02:31;;;;;;;9.45;5.15;;;;;;;4.50;69.25;98710.88;1807618;78;21133;-62
2021/03/18 09:05:22;;;;;;;9.68;5.70;;;;;;;4.58;69.76;98710.22;1807523;79;21166;-62
2021/03/18 09:07:56;;;;;;;10.15;5.05;;;;;;;4.66;70.01;98710.81;1663682;84;21120;-61
2021/03/18 09:10:29;;;;;;;9.55;5.92;;;;;;;4.78;69.71;98709.62;1691379;84;22262;-61
2021/03/18 09:13:16;;;;;;;12.00;5.78;;;;;;;4.89;69.79;98704.13;1690944;84;21184;-60
2021/03/18 09:15:47;;;;;;;15.53;5.90;;;;;;;5.01;68.85;98710.19;1691293;84;21155;-60
2021/03/18 09:18:30;;;;;;;10.85;5.33;;;;;;;5.06;67.94;98713.02;1688508;84;21092;-60
2021/03/18 09:21:10;;;;;;;14.23;4.90;;;;;;;5.03;67.36;98711.83;1691264;83;21073;-61
2021/03/18 09:23:45;;;;;;;20.43;6.53;;;;;;;4.95;67.82;98729.28;1676723;84;21402;-62
2021/03/18 09:26:16;;;;;;;10.45;5.47;;;;;;;4.88;67.70;98714.03;1676148;85;21160;-61
2021/03/18 09:28:50;;;;;;;13.10;5.00;;;;;;;4.89;68.23;98717.02;1676135;84;21616;-60
2021/03/18 09:31:23;;;;;;;12.98;5.83;;;;;;;4.96;68.62;98715.50;1676298;84;21138;-61
2021/03/18 09:33:54;;;;;;;13.03;5.20;;;;;;;5.05;68.12;98720.36;1657174;85;21193;-61
2021/03/18 09:36:27;;;;;;;10.98;4.65;;;;;;;5.15;68.02;98717.06;1646952;85;21209;-61
2021/03/18 09:39:09;;;;;;;13.32;5.35;;;;;;;5.22;65.96;98712.09;1676182;84;21079;-62
2021/03/18 09:41:47;;;;;;;6.00;4.45;;;;;;;5.29;65.37;98716.16;1676185;85;21075;-60
2021/03/18 09:44:18;;;;;;;15.60;6.17;;;;;;;5.30;65.46;98711.85;1676294;85;21587;-61
2021/03/18 09:46:54;;;;;;;21.82;5.40;;;;;;;5.38;66.94;98709.88;1676259;84;21107;-62
2021/03/18 09:49:34;;;;;;;13.95;5.10;;;;;;;5.46;65.89;98710.01;1676238;84;21375;-61
2021/03/18 09:52:08;;;;;;;14.10;5.80;;;;;;;5.49;65.67;98709.07;1676201;84;21500;-61
2021/03/18 09:54:37;;;;;;;14.35;5.42;;;;;;;5.62;66.37;98708.20;1675514;85;21154;-62
2021/03/18 09:57:17;;;;;;;21.00;5.50;;;;;;;5.76;64.43;98714.61;1672918;84;21185;-61
2021/03/18 09:59:50;;;;;;;15.65;5.35;;;;;;;5.80;64.27;98712.73;1674176;85;21190;-62
2021/03/18 10:02:21;;;;;;;10.65;5.08;;;;;;;5.81;63.41;98716.55;1674491;84;21213;-63
2021/03/18 10:04:49;;;;;;;10.93;4.60;;;;;;;5.77;63.65;98716.73;1655476;85;21234;-63
2021/03/18 10:07:17;;;;;;;14.80;4.83;;;;;;;5.73;63.21;98719.87;1693511;84;21672;-62
2021/03/18 10:09:46;;;;;;;18.48;6.00;;;;;;;5.71;61.84;98719.07;1701254;83;22231;-62
2021/03/18 10:12:20;;;;;;;16.15;4.65;;;;;;;5.72;62.84;98721.20;1703725;83;21204;-61
2021/03/18 10:14:54;;;;;;;10.55;4.62;;;;;;;5.73;62.88;98719.87;1681193;84;21453;-61
2021/03/18 10:17:28;;;;;;;18.40;5.17;;;;;;;5.69;62.98;98730.33;1703860;84;21538;-61
2021/03/18 10:20:01;;;;;;;9.00;4.20;;;;;;;5.62;62.49;98722.39;1703806;84;21146;-61
2021/03/18 10:22:36;;;;;;;13.15;4.50;;;;;;;5.56;62.20;98726.04;1703760;83;21115;-61
2021/03/18 10:25:20;;;;;;;18.57;4.80;;;;;;;5.56;62.77;98718.75;1703834;84;21586;-61
2021/03/18 10:27:52;;;;;;;11.05;3.87;;;;;;;5.53;62.05;98722.27;1703792;84;21214;-63
2021/03/18 10:30:23;;;;;;;12.23;3.80;;;;;;;5.52;62.03;98727.03;1702907;83;21114;-61
2021/03/18 10:33:16;;;;;;;13.65;3.67;;;;;;;5.44;61.54;98731.13;1703874;84;21472;-61
2021/03/18 10:35:53;;;;;;;15.48;3.87;;;;;;;5.40;61.85;98733.86;1703778;83;21142;-61
2021/03/18 10:38:39;;;;;;;12.80;4.62;;;;;;;5.41;61.04;98729.94;1888590;76;22644;-60
2021/03/18 10:41:14;;;;;;;27.55;4.10;;;;;;;5.35;62.00;98735.77;1775183;80;20965;-60
2021/03/18 10:43:46;;;;;;;12.95;3.65;;;;;;;5.32;61.62;98729.41;1849836;77;21250;-61
2021/03/18 10:46:17;;;;;;;7.28;3.02;;;;;;;5.30;63.42;98735.90;1849888;77;21130;-61
2021/03/18 10:48:49;;;;;;;14.45;4.03;;;;;;;5.29;64.56;98739.81;1849762;77;21087;-61
2021/03/18 10:51:20;;;;;;;17.25;4.92;;;;;;;5.27;64.82;98730.84;1849803;77;21066;-60
2021/03/18 10:53:52;;;;;;;19.37;4.35;;;;;;;5.27;64.83;98739.86;1849875;77;20928;-62
2021/03/18 10:56:26;;;;;;;11.38;2.83;;;;;;;5.30;63.90;98742.34;1849756;77;21191;-62
2021/03/18 10:58:56;;;;;;;14.65;3.85;;;;;;;5.32;61.97;98735.86;1849742;77;20973;-60
2021/03/18 11:01:27;;;;;;;15.48;3.25;;;;;;;5.30;62.02;98738.48;1849699;77;21079;-61
2021/03/18 11:04:03;;;;;;;13.05;3.87;;;;;;;5.35;62.17;98735.77;1849886;77;21480;-62
2021/03/18 11:06:36;;;;;;;9.48;3.15;;;;;;;5.38;63.17;98732.64;1849781;77;21182;-61
2021/03/18 11:09:04;;;;;;;10.63;3.10;;;;;;;5.44;64.15;98741.89;1848334;77;21387;-61
2021/03/18 11:11:32;;;;;;;16.25;3.85;;;;;;;5.42;64.41;98738.08;1776277;77;21071;-62
2021/03/18 11:14:12;;;;;;;15.30;3.70;;;;;;;5.34;64.94;98733.63;1849711;77;21126;-61
2021/03/18 11:16:41;;;;;;;13.83;5.03;;;;;;;5.28;65.12;98740.26;1849735;77;21064;-61
2021/03/18 11:19:17;;;;;;;11.57;3.90;;;;;;;5.27;65.52;98732.12;1849763;77;21484;-60
2021/03/18 11:21:54;;;;;;;18.57;3.75;;;;;;;5.29;65.63;98741.95;1843716;77;21416;-62
2021/03/18 11:24:21;;;;;;;7.40;3.42;;;;;;;5.29;65.24;98724.34;1814832;79;21504;-61
2021/03/18 11:26:56;;;;;;;12.23;3.95;;;;;;;5.26;64.95;98722.70;1816489;79;21103;-60
2021/03/18 11:29:28;;;;;;;18.65;5.03;;;;;;;5.22;64.68;98726.27;1816376;78;21195;-61
2021/03/18 11:32:00;;;;;;;16.67;3.95;;;;;;;5.18;64.73;98729.41;1816431;79;21107;-62
2021/03/18 11:34:32;;;;;;;10.98;3.75;;;;;;;5.16;64.22;98727.33;1785555;79;22102;-63
2021/03/18 11:37:06;;;;;;;8.95;3.12;;;;;;;5.10;64.72;98732.66;1813551;79;21107;-63
2021/03/18 11:39:34;;;;;;;10.88;2.70;;;;;;;4.99;65.34;98731.32;1815098;79;21142;-62
2021/03/18 11:42:04;;;;;;;19.90;3.55;;;;;;;4.87;65.39;98727.81;1816387;79;21815;-62
2021/03/18 11:44:32;;;;;;;13.58;3.58;;;;;;;4.80;65.72;98736.16;1816425;78;21067;-62
2021/03/18 11:47:05;;;;;;;6.12;3.35;;;;;;;4.77;66.26;98732.41;1816389;79;21439;-62
2021/03/18 11:49:36;;;;;;;6.25;3.30;;;;;;;4.76;66.55;98738.00;1815871;79;21067;-61
2021/03/18 11:52:07;;;;;;;8.53;4.53;;;;;;;4.72;67.91;98738.13;1834925;77;21143;-62
2021/03/18 11:54:39;;;;;;;10.65;4.00;;;;;;;4.69;68.61;98745.95;1849103;77;21040;-60
2021/03/18 11:57:07;;;;;;;5.12;3.12;;;;;;;4.62;69.28;98743.14;1847602;77;21515;-60
2021/03/18 11:59:44;;;;;;;12.20;3.20;;;;;;;4.62;69.25;98744.42;1818300;77;22435;-63
2021/03/18 12:02:31;;;;;;;9.65;3.05;;;;;;;4.66;68.72;98743.02;1810598;79;21123;-62